createdAt,value
2023-02-11T05:12:08.490Z,0
2023-02-11T05:13:08.466Z,0
2023-02-11T05:14:08.466Z,0
2023-02-11T05:15:08.455Z,0
2023-02-11T05:16:08.662Z,0
2023-02-11T05:17:08.475Z,5
2023-02-11T05:18:08.483Z,5
2023-02-11T05:19:08.454Z,5
2023-02-11T05:20:08.490Z,5
2023-02-11T05:21:08.661Z,5
2023-02-11T05:22:08.508Z,5
2023-02-11T05:23:08.497Z,5
2023-02-11T05:24:08.468Z,5
2023-02-11T05:25:08.462Z,5
2023-02-11T05:26:08.690Z,5
2023-02-11T05:27:08.477Z,5
2023-02-11T05:28:08.515Z,5
2023-02-11T05:29:08.457Z,5
2023-02-11T05:30:08.485Z,5
2023-02-11T05:31:08.741Z,5
2023-02-11T05:32:08.495Z,5
2023-02-11T05:33:08.479Z,5
2023-02-11T05:34:08.486Z,5
2023-02-11T05:35:08.493Z,5
2023-02-11T05:36:08.687Z,5
2023-02-11T05:37:08.512Z,8
2023-02-11T05:38:08.504Z,8
2023-02-11T05:39:08.479Z,8
2023-02-11T05:40:08.492Z,8
2023-02-11T05:41:08.671Z,8
2023-02-11T05:42:08.488Z,6
2023-02-11T05:43:08.501Z,6
2023-02-11T05:44:08.510Z,6
2023-02-11T05:45:08.467Z,6
2023-02-11T05:46:08.680Z,6
2023-02-11T05:47:08.494Z,2
2023-02-11T05:49:08.499Z,2
2023-02-11T05:50:08.494Z,2
2023-02-11T05:51:08.695Z,2
2023-02-11T05:52:08.479Z,2
2023-02-11T05:53:08.512Z,2
2023-02-11T05:54:08.501Z,2
2023-02-11T05:55:08.471Z,2
2023-02-11T05:56:08.699Z,2
2023-02-11T05:57:08.476Z,0
2023-02-11T05:58:08.498Z,0
2023-02-11T05:59:08.472Z,0
2023-02-11T06:00:08.505Z,0
2023-02-11T06:01:08.668Z,0
2023-02-11T06:02:08.660Z,3
2023-02-11T06:03:08.495Z,3
2023-02-11T06:04:08.497Z,3
2023-02-11T06:05:08.470Z,3
2023-02-11T06:06:08.672Z,3
2023-02-11T06:07:08.497Z,1
2023-02-11T06:08:08.517Z,1
2023-02-11T06:09:08.501Z,1
2023-02-11T06:10:08.475Z,1
2023-02-11T06:11:08.699Z,1
2023-02-11T06:12:08.500Z,0
2023-02-11T06:13:08.473Z,0
2023-02-11T06:14:08.469Z,0
2023-02-11T06:15:08.525Z,0
2023-02-11T06:16:08.739Z,0
2023-02-11T06:17:08.500Z,0
2023-02-11T06:18:08.473Z,0
2023-02-11T06:19:08.501Z,0
2023-02-11T06:20:08.511Z,0
2023-02-11T06:21:08.713Z,0
2023-02-11T06:22:08.505Z,0
2023-02-11T06:23:08.501Z,0
2023-02-11T06:24:08.510Z,0
2023-02-11T06:25:08.503Z,0
2023-02-11T06:26:08.679Z,0
2023-02-11T06:27:08.503Z,3
2023-02-11T06:28:08.532Z,3
2023-02-11T06:29:08.513Z,3
2023-02-11T06:30:08.508Z,3
2023-02-11T06:31:08.734Z,3
2023-02-11T06:32:13.505Z,4
2023-02-11T06:33:08.517Z,4
2023-02-11T06:34:08.475Z,4
2023-02-11T06:35:11.414Z,4
2023-02-11T06:36:08.711Z,4
2023-02-11T06:37:08.480Z,4
2023-02-11T06:38:08.506Z,4
2023-02-11T06:39:08.513Z,4
2023-02-11T06:40:08.513Z,4
2023-02-11T06:41:08.712Z,4
2023-02-11T06:42:08.511Z,4
2023-02-11T06:43:08.514Z,4
2023-02-11T06:44:08.508Z,4
2023-02-11T06:45:08.480Z,4
2023-02-11T06:46:08.727Z,4
2023-02-11T06:47:08.496Z,7
2023-02-11T06:48:08.516Z,7
2023-02-11T06:49:08.502Z,7
2023-02-11T06:50:08.506Z,7
2023-02-11T06:51:08.709Z,7
2023-02-11T06:52:08.506Z,8
2023-02-11T06:53:08.522Z,8
2023-02-11T06:54:08.529Z,8
2023-02-11T06:55:08.530Z,8
2023-02-11T06:56:08.709Z,8
2023-02-11T06:57:08.513Z,8
2023-02-11T06:58:08.515Z,8
2023-02-11T06:59:08.525Z,8
2023-02-11T07:00:08.522Z,8
2023-02-11T07:01:08.700Z,8
2023-02-11T07:02:08.550Z,4
2023-02-11T07:03:08.632Z,4
2023-02-11T07:04:08.516Z,4
2023-02-11T07:05:08.509Z,4
2023-02-11T07:06:08.697Z,4
2023-02-11T07:07:08.514Z,0
2023-02-11T07:08:08.512Z,0
2023-02-11T07:09:08.523Z,0
2023-02-11T07:10:08.516Z,0
2023-02-11T07:11:08.695Z,0
2023-02-11T07:12:08.511Z,2
2023-02-11T07:13:08.493Z,2
2023-02-11T07:14:08.538Z,2
2023-02-11T07:15:08.538Z,2
2023-02-11T07:16:08.765Z,2
2023-02-11T07:17:08.532Z,2
2023-02-11T07:18:08.527Z,2
2023-02-11T07:19:08.520Z,2
2023-02-11T07:20:08.492Z,2
2023-02-11T07:21:08.711Z,2
2023-02-11T07:22:08.529Z,8
2023-02-11T07:23:08.517Z,8
2023-02-11T07:24:10.860Z,8
2023-02-11T07:25:08.536Z,8
2023-02-11T07:26:08.732Z,8
2023-02-11T07:27:08.529Z,14
2023-02-11T07:28:08.546Z,14
2023-02-11T07:29:08.520Z,14
2023-02-11T07:30:08.541Z,14
2023-02-11T07:31:08.799Z,14
2023-02-11T07:32:08.537Z,2
2023-02-11T07:33:08.524Z,2
2023-02-11T07:34:08.509Z,2
2023-02-11T07:35:08.532Z,2
2023-02-11T07:36:08.698Z,2
2023-02-11T07:37:08.515Z,3
2023-02-11T07:38:08.508Z,3
2023-02-11T07:39:08.500Z,3
2023-02-11T07:40:08.531Z,3
2023-02-11T07:41:08.701Z,3
2023-02-11T07:42:08.507Z,12
2023-02-11T07:43:08.519Z,12
2023-02-11T07:44:08.540Z,12
2023-02-11T07:45:08.528Z,12
2023-02-11T07:46:08.725Z,12
2023-02-11T07:47:08.558Z,14
2023-02-11T07:49:08.530Z,14
2023-02-11T07:50:08.534Z,14
2023-02-11T07:51:08.735Z,14
2023-02-11T07:52:08.501Z,11
2023-02-11T07:53:08.530Z,11
2023-02-11T07:54:08.506Z,11
2023-02-11T07:55:08.532Z,11
2023-02-11T07:56:08.705Z,11
2023-02-11T07:57:08.541Z,11
2023-02-11T07:58:08.542Z,11
2023-02-11T07:59:08.535Z,11
2023-02-11T08:00:08.542Z,11
2023-02-11T08:01:08.766Z,11
2023-02-11T08:02:08.576Z,12
2023-02-11T08:03:08.560Z,12
2023-02-11T08:04:08.503Z,12
2023-02-11T08:05:08.501Z,12
2023-02-11T08:06:08.708Z,12
2023-02-11T08:07:08.519Z,14
2023-02-11T08:08:08.526Z,14
2023-02-11T08:09:08.542Z,14
2023-02-11T08:10:08.541Z,14
2023-02-11T08:11:08.733Z,14
2023-02-11T08:12:08.517Z,12
2023-02-11T08:13:08.534Z,12
2023-02-11T08:14:08.540Z,12
2023-02-11T08:15:08.546Z,12
2023-02-11T08:16:08.739Z,12
2023-02-11T08:17:08.538Z,5
2023-02-11T08:18:08.533Z,5
2023-02-11T08:19:08.513Z,5
2023-02-11T08:20:08.538Z,5
2023-02-11T08:21:08.739Z,5
2023-02-11T08:22:08.534Z,12
2023-02-11T08:23:08.541Z,12
2023-02-11T08:24:08.566Z,12
2023-02-11T08:25:08.505Z,12
2023-02-11T08:26:08.717Z,12
2023-02-11T08:27:08.516Z,1
2023-02-11T08:28:08.559Z,1
2023-02-11T08:29:08.523Z,1
2023-02-11T08:30:08.537Z,1
2023-02-11T08:31:08.830Z,1
2023-02-11T08:32:08.579Z,2
2023-02-11T08:33:08.539Z,2
2023-02-11T08:34:08.535Z,2
2023-02-11T08:35:08.538Z,2
2023-02-11T08:36:08.719Z,2
2023-02-11T08:37:08.542Z,0
2023-02-11T08:38:08.511Z,0
2023-02-11T08:39:18.432Z,0
2023-02-11T08:40:08.536Z,0
2023-02-11T08:41:08.715Z,0
2023-02-11T08:42:08.533Z,9
2023-02-11T08:43:08.512Z,9
2023-02-11T08:44:08.517Z,9
2023-02-11T08:45:08.541Z,9
2023-02-11T08:46:08.743Z,9
2023-02-11T08:47:08.530Z,16
2023-02-11T08:48:08.543Z,16
2023-02-11T08:49:08.517Z,16
2023-02-11T08:50:08.544Z,16
2023-02-11T08:51:08.733Z,16
2023-02-11T08:52:08.536Z,8
2023-02-11T08:53:08.546Z,8
2023-02-11T08:54:08.525Z,8
2023-02-11T08:55:08.542Z,8
2023-02-11T08:56:08.736Z,8
2023-02-11T08:57:08.567Z,26
2023-02-11T08:58:08.523Z,26
2023-02-11T08:59:08.532Z,26
2023-02-11T09:01:08.738Z,26
2023-02-11T09:02:08.557Z,25
2023-02-11T09:03:08.545Z,25
2023-02-11T09:04:08.548Z,25
2023-02-11T09:05:08.526Z,25
2023-02-11T09:06:08.746Z,25
2023-02-11T09:08:08.544Z,23
2023-02-11T09:09:08.534Z,23
2023-02-11T09:11:08.732Z,23
2023-02-11T09:12:08.553Z,23
2023-02-11T09:13:08.551Z,23
2023-02-11T09:14:08.536Z,23
2023-02-11T09:15:08.539Z,23
2023-02-11T09:16:08.732Z,23
2023-02-11T09:18:08.555Z,21
2023-02-11T09:19:08.522Z,21
2023-02-11T09:20:10.688Z,21
2023-02-11T09:21:08.735Z,21
2023-02-11T09:24:08.573Z,16
2023-02-11T09:26:09.411Z,16
2023-02-11T09:28:08.611Z,20
2023-02-11T09:34:08.564Z,18
2023-02-11T09:36:08.747Z,18
2023-02-11T09:37:08.554Z,18
2023-02-11T09:40:08.552Z,18
2023-02-11T09:41:08.737Z,18
2023-02-11T09:43:08.551Z,3
2023-02-11T09:45:08.555Z,3
2023-02-11T09:47:08.560Z,13
2023-02-11T09:51:08.744Z,13
2023-02-11T09:54:08.561Z,16
2023-02-11T09:57:16.860Z,0
2023-02-11T10:00:08.573Z,0
2023-02-11T10:01:08.824Z,0
2023-02-11T10:07:08.545Z,23
2023-02-11T10:10:08.564Z,23
2023-02-11T10:11:08.746Z,23
2023-02-11T10:12:08.572Z,9
2023-02-11T10:18:08.551Z,5
2023-02-11T10:22:08.559Z,1
2023-02-11T10:23:08.584Z,1
2023-02-11T10:26:08.781Z,1
2023-02-11T10:28:08.592Z,0
2023-02-11T10:35:08.572Z,6
2023-02-11T10:37:08.558Z,11
